createdAt,value
2022-11-15T00:02:16.470Z,89.21
2022-11-15T00:04:58.871Z,89.13
2022-11-15T00:07:55.056Z,89.45
2022-11-15T00:10:38.272Z,89.06
2022-11-15T00:13:20.658Z,88.58
2022-11-15T00:16:05.763Z,88.64
2022-11-15T00:18:50.628Z,89.17
2022-11-15T00:21:32.918Z,89.18
2022-11-15T00:24:15.089Z,90.81
2022-11-15T00:26:57.308Z,90.18
2022-11-15T00:29:44.091Z,89.54
2022-11-15T00:32:27.866Z,89.09
2022-11-15T00:35:10.937Z,89.12
2022-11-15T00:37:55.433Z,88.71
2022-11-15T00:40:37.887Z,88.86
2022-11-15T00:43:20.401Z,88.21
2022-11-15T00:46:03.309Z,87.93
2022-11-15T00:48:47.096Z,88.46
2022-11-15T00:51:29.721Z,90.63
2022-11-15T00:54:12.263Z,90.00
2022-11-15T00:56:54.329Z,89.37
2022-11-15T00:59:36.295Z,90.20
2022-11-15T01:02:18.656Z,89.51
2022-11-15T01:05:02.085Z,89.16
2022-11-15T01:07:44.164Z,89.39
2022-11-15T01:10:26.936Z,89.30
2022-11-15T01:13:08.931Z,90.27
2022-11-15T01:15:51.157Z,89.86
2022-11-15T01:18:33.345Z,89.79
2022-11-15T01:21:19.755Z,89.67
2022-11-15T01:24:02.034Z,89.73
2022-11-15T01:26:44.556Z,89.52
2022-11-15T01:29:26.778Z,89.55
2022-11-15T01:32:08.778Z,89.32
2022-11-15T01:34:51.109Z,89.31
2022-11-15T01:37:34.824Z,89.74
2022-11-15T01:40:17.545Z,88.65
2022-11-15T01:42:59.862Z,89.04
2022-11-15T01:45:42.094Z,89.50
2022-11-15T01:48:28.388Z,89.68
2022-11-15T01:51:14.168Z,89.30
2022-11-15T01:54:03.196Z,90.17
2022-11-15T01:56:50.184Z,89.39
2022-11-15T01:59:33.462Z,89.24
2022-11-15T02:02:16.021Z,88.95
2022-11-15T02:04:58.144Z,88.61
2022-11-15T02:07:40.507Z,89.22
2022-11-15T02:10:26.813Z,89.08
2022-11-15T02:13:08.853Z,89.24
2022-11-15T02:16:02.976Z,88.96
2022-11-15T02:18:55.086Z,88.75
2022-11-15T02:21:45.944Z,88.98
2022-11-15T02:25:04.034Z,89.71
2022-11-15T02:28:28.775Z,88.50
2022-11-15T02:31:16.470Z,88.48
2022-11-15T02:34:08.301Z,90.17
2022-11-15T02:37:01.599Z,88.63
2022-11-15T02:39:52.148Z,88.68
2022-11-15T02:42:56.491Z,88.06
2022-11-15T02:45:43.209Z,87.97
2022-11-15T02:48:28.672Z,88.52
2022-11-15T02:51:11.827Z,88.02
2022-11-15T02:53:53.626Z,88.18
2022-11-15T02:56:35.757Z,87.96
2022-11-15T02:59:50.694Z,88.20
2022-11-15T03:03:02.859Z,88.48
2022-11-15T03:05:56.513Z,88.73
2022-11-15T03:08:49.737Z,89.12
2022-11-15T03:11:35.575Z,88.47
2022-11-15T03:14:24.646Z,88.48
2022-11-15T03:17:18.782Z,89.25
2022-11-15T03:20:03.939Z,88.68
2022-11-15T03:22:50.478Z,88.07
2022-11-15T03:25:36.970Z,88.37
2022-11-15T03:28:22.869Z,88.20
2022-11-15T03:31:27.433Z,88.33
2022-11-15T03:34:15.208Z,90.01
2022-11-15T03:36:57.954Z,89.36
2022-11-15T03:39:41.711Z,89.74
2022-11-15T03:42:30.665Z,88.94
2022-11-15T03:45:18.078Z,89.83
2022-11-15T03:48:06.379Z,89.43
2022-11-15T03:50:49.558Z,89.64
2022-11-15T03:53:33.179Z,90.03
2022-11-15T03:56:16.916Z,89.06
2022-11-15T03:58:58.982Z,89.51
2022-11-15T04:01:41.208Z,89.23
2022-11-15T04:04:23.475Z,89.70
2022-11-15T04:07:05.552Z,89.60
2022-11-15T04:10:06.565Z,88.91
2022-11-15T04:12:50.250Z,89.85
2022-11-15T04:15:32.438Z,88.60
2022-11-15T04:18:14.558Z,88.94
2022-11-15T04:21:14.258Z,89.13
2022-11-15T04:24:14.414Z,89.89
2022-11-15T04:26:56.566Z,89.34
2022-11-15T04:29:40.216Z,90.42
2022-11-15T04:32:22.287Z,89.67
2022-11-15T04:35:04.467Z,89.33
2022-11-15T04:37:49.281Z,89.53
2022-11-15T04:40:32.106Z,89.10
2022-11-15T04:43:14.257Z,88.50
2022-11-15T04:45:58.252Z,88.51
2022-11-15T04:48:40.099Z,88.69
2022-11-15T04:51:23.183Z,89.05
2022-11-15T04:54:05.665Z,90.41
2022-11-15T04:56:48.166Z,89.60
2022-11-15T04:59:30.149Z,87.94
2022-11-15T05:02:13.706Z,88.53
2022-11-15T05:04:54.718Z,89.13
2022-11-15T05:07:36.586Z,89.46
2022-11-15T05:10:19.555Z,89.15
2022-11-15T05:13:01.749Z,88.47
2022-11-15T05:15:43.900Z,88.90
2022-11-15T05:18:27.110Z,88.47
2022-11-15T05:21:12.297Z,88.03
2022-11-15T05:23:54.782Z,88.92
2022-11-15T05:26:37.301Z,89.01
2022-11-15T05:29:19.400Z,89.01
2022-11-15T05:32:01.975Z,88.52
2022-11-15T05:34:45.738Z,89.37
2022-11-15T05:37:27.808Z,89.12
2022-11-15T05:40:11.485Z,88.90
2022-11-15T05:42:53.466Z,88.71
2022-11-15T05:45:37.222Z,88.17
2022-11-15T05:48:19.789Z,88.38
2022-11-15T05:51:04.376Z,88.59
2022-11-15T05:53:47.082Z,89.08
2022-11-15T05:56:29.158Z,89.04
2022-11-15T05:59:13.201Z,88.65
2022-11-15T06:01:55.466Z,88.36
2022-11-15T06:04:37.754Z,88.28
2022-11-15T06:07:21.406Z,88.27
2022-11-15T06:10:03.726Z,88.49
2022-11-15T06:12:45.480Z,89.13
2022-11-15T06:15:28.433Z,88.18
2022-11-15T06:18:10.448Z,88.13
2022-11-15T06:20:52.712Z,87.73
2022-11-15T06:23:37.389Z,87.93
2022-11-15T06:26:19.653Z,88.71
2022-11-15T06:29:01.681Z,88.92
2022-11-15T06:31:44.033Z,88.80
2022-11-15T06:34:26.292Z,88.52
2022-11-15T06:37:08.278Z,88.68
2022-11-15T06:39:51.622Z,88.53
2022-11-15T06:42:33.875Z,88.51
2022-11-15T06:45:16.086Z,88.75
2022-11-15T06:47:58.203Z,88.21
2022-11-15T06:50:40.607Z,88.46
2022-11-15T06:53:23.323Z,89.11
2022-11-15T06:56:10.089Z,88.65
2022-11-15T06:58:52.077Z,90.20
2022-11-15T07:01:34.673Z,89.87
2022-11-15T07:04:16.717Z,89.08
2022-11-15T07:06:58.814Z,89.49
2022-11-15T07:09:41.247Z,89.82
2022-11-15T07:12:24.366Z,89.71
2022-11-15T07:15:08.302Z,89.88
2022-11-15T07:17:50.713Z,90.39
2022-11-15T07:20:32.738Z,89.26
2022-11-15T07:23:15.221Z,90.08
2022-11-15T07:26:00.331Z,89.99
2022-11-15T07:28:44.394Z,89.20
2022-11-15T07:31:26.569Z,89.77
2022-11-15T07:34:09.557Z,89.95
2022-11-15T07:36:51.833Z,90.01
2022-11-15T07:39:34.003Z,89.79
2022-11-15T07:42:33.354Z,90.01
2022-11-15T07:45:17.217Z,90.65
2022-11-15T07:47:59.673Z,90.32
2022-11-15T07:50:44.229Z,91.51
2022-11-15T07:53:26.413Z,92.30
2022-11-15T07:56:08.983Z,91.46
2022-11-15T07:58:51.538Z,91.66
2022-11-15T08:01:35.296Z,93.04
2022-11-15T08:04:17.749Z,92.22
2022-11-15T08:07:00.623Z,93.06
2022-11-15T08:09:42.811Z,93.86
2022-11-15T08:12:25.740Z,93.49
2022-11-15T08:15:09.149Z,95.11
2022-11-15T08:17:57.964Z,94.79
2022-11-15T08:20:40.294Z,95.60
2022-11-15T08:23:22.493Z,97.23
2022-11-15T08:26:05.449Z,98.29
2022-11-15T08:28:47.672Z,98.39
2022-11-15T08:31:29.666Z,97.63
2022-11-15T08:34:12.939Z,98.66
2022-11-15T08:36:54.789Z,97.95
2022-11-15T08:39:36.994Z,96.31
2022-11-15T08:42:20.179Z,96.87
2022-11-15T08:45:02.588Z,97.85
2022-11-15T08:47:48.454Z,98.84
2022-11-15T08:50:34.810Z,97.97
2022-11-15T08:53:16.984Z,98.89
2022-11-15T08:55:58.750Z,98.94
2022-11-15T08:58:41.094Z,97.91
2022-11-15T09:01:24.000Z,96.20
2022-11-15T09:04:06.578Z,93.71
2022-11-15T09:06:50.154Z,89.69
2022-11-15T09:09:32.197Z,88.55
2022-11-15T09:12:14.574Z,87.40
2022-11-15T09:14:57.002Z,84.61
2022-11-15T09:17:39.106Z,83.32
2022-11-15T09:20:21.559Z,81.27
2022-11-15T09:23:06.615Z,79.14
2022-11-15T09:25:49.123Z,76.53
2022-11-15T09:28:32.013Z,76.65
2022-11-15T09:31:17.963Z,74.55
2022-11-15T09:34:03.228Z,76.33
2022-11-15T09:36:45.907Z,73.53
2022-11-15T09:39:29.719Z,73.38
2022-11-15T09:42:40.279Z,73.24
2022-11-15T09:45:28.866Z,73.33
2022-11-15T09:48:49.178Z,74.33
2022-11-15T09:51:35.542Z,75.19
2022-11-15T09:54:37.843Z,74.10
2022-11-15T09:56:52.615Z,74.98
2022-11-15T09:59:32.520Z,74.88
2022-11-15T10:02:10.807Z,75.79
2022-11-15T10:04:34.892Z,75.42
2022-11-15T10:07:16.106Z,75.13
2022-11-15T10:09:49.679Z,75.67
2022-11-15T10:12:16.482Z,74.94
2022-11-15T10:14:40.184Z,76.08
2022-11-15T10:17:23.879Z,75.25
2022-11-15T10:20:04.088Z,76.05
2022-11-15T10:22:32.684Z,75.52
2022-11-15T10:25:19.208Z,75.00
2022-11-15T10:27:45.901Z,75.44
2022-11-15T10:30:15.809Z,76.30
2022-11-15T10:32:39.987Z,74.50
2022-11-15T10:35:23.981Z,75.78
2022-11-15T10:37:47.605Z,75.15
2022-11-15T10:40:21.822Z,76.20
2022-11-15T10:42:47.022Z,74.75
2022-11-15T10:45:27.927Z,75.73
2022-11-15T10:47:51.687Z,76.28
2022-11-15T10:50:31.266Z,74.77
2022-11-15T10:52:55.621Z,74.94
2022-11-15T10:55:29.808Z,74.10
2022-11-15T10:57:57.436Z,73.97
2022-11-15T11:00:34.625Z,73.87
2022-11-15T11:03:05.150Z,74.77
2022-11-15T11:05:36.555Z,74.75
2022-11-15T11:08:07.508Z,73.61
2022-11-15T11:13:22.760Z,74.33
2022-11-15T11:15:49.598Z,74.58
2022-11-15T11:18:24.241Z,73.05
2022-11-15T11:20:54.282Z,73.48
2022-11-15T11:23:39.313Z,72.53
2022-11-15T11:26:26.011Z,73.92
2022-11-15T11:28:58.989Z,74.74
2022-11-15T11:31:36.218Z,73.79
2022-11-15T11:34:15.536Z,73.86
2022-11-15T11:36:47.898Z,72.60
2022-11-15T11:39:28.981Z,73.13
2022-11-15T11:42:04.531Z,72.76
2022-11-15T11:44:43.070Z,72.62
2022-11-15T11:47:12.698Z,72.62
2022-11-15T11:49:45.905Z,71.75
2022-11-15T11:52:18.223Z,72.11
2022-11-15T11:54:54.978Z,72.14
2022-11-15T11:57:28.085Z,71.82
2022-11-15T11:59:59.111Z,71.30
2022-11-15T12:02:30.895Z,72.11
2022-11-15T12:05:03.842Z,73.08
2022-11-15T12:07:33.340Z,72.62
2022-11-15T12:10:02.467Z,71.60
2022-11-15T12:12:38.774Z,71.43
2022-11-15T12:15:14.161Z,71.20
2022-11-15T12:17:39.618Z,71.59
2022-11-15T12:20:10.277Z,71.28
2022-11-15T12:22:41.262Z,71.13
2022-11-15T12:25:10.116Z,70.94
2022-11-15T12:27:40.744Z,70.64
2022-11-15T12:30:12.891Z,71.37
2022-11-15T12:32:39.732Z,70.79
2022-11-15T12:35:06.403Z,70.55
2022-11-15T12:37:56.095Z,70.80
2022-11-15T12:40:39.172Z,70.30
2022-11-15T12:43:40.810Z,70.31
2022-11-15T12:46:08.246Z,70.08
2022-11-15T12:48:55.024Z,71.01
2022-11-15T12:51:19.164Z,70.39
2022-11-15T12:53:42.830Z,70.23
2022-11-15T12:56:25.034Z,70.44
2022-11-15T12:58:52.789Z,69.87
2022-11-15T13:01:57.102Z,70.30
2022-11-15T13:04:30.670Z,70.32
2022-11-15T13:06:56.737Z,69.88
2022-11-15T13:09:57.757Z,69.84
2022-11-15T13:12:56.302Z,69.78
2022-11-15T13:15:43.206Z,69.93
2022-11-15T13:18:36.379Z,68.95
2022-11-15T13:21:02.600Z,70.18
2022-11-15T13:23:26.823Z,69.33
2022-11-15T13:26:12.412Z,68.75
2022-11-15T13:28:39.865Z,68.82
2022-11-15T13:31:22.042Z,69.92
2022-11-15T13:33:47.265Z,69.56
2022-11-15T13:36:18.493Z,69.07
2022-11-15T13:38:43.743Z,68.99
2022-11-15T13:41:21.707Z,68.47
2022-11-15T13:43:45.266Z,69.68
2022-11-15T13:46:14.048Z,69.32
2022-11-15T13:48:38.304Z,70.86
2022-11-15T13:51:05.602Z,70.12
2022-11-15T13:53:29.472Z,70.74
2022-11-15T13:55:54.396Z,70.86
2022-11-15T13:58:23.923Z,71.22
2022-11-15T14:00:48.477Z,71.33
2022-11-15T14:03:21.573Z,71.69
2022-11-15T14:05:45.416Z,71.45
2022-11-15T14:08:26.084Z,72.17
2022-11-15T14:10:49.674Z,72.60
2022-11-15T14:13:29.775Z,72.75
2022-11-15T14:15:53.399Z,73.03
2022-11-15T14:18:46.240Z,73.70
2022-11-15T14:21:11.273Z,74.21
2022-11-15T14:23:36.290Z,74.22
2022-11-15T14:26:01.552Z,74.86
2022-11-15T14:28:40.216Z,75.39
2022-11-15T14:31:11.878Z,74.05
2022-11-15T14:33:39.990Z,74.00
2022-11-15T14:36:08.821Z,74.24
2022-11-15T14:38:32.986Z,75.04
2022-11-15T14:40:59.375Z,75.32
2022-11-15T14:43:23.053Z,74.83
2022-11-15T14:45:47.131Z,74.81
2022-11-15T14:48:10.901Z,74.79
2022-11-15T14:50:35.962Z,75.37
2022-11-15T14:52:59.638Z,76.16
2022-11-15T14:55:26.365Z,75.34
2022-11-15T14:57:51.979Z,76.18
2022-11-15T15:00:16.792Z,75.54
2022-11-15T15:02:40.600Z,76.23
2022-11-15T15:05:09.504Z,76.09
2022-11-15T15:07:33.250Z,76.73
2022-11-15T15:10:24.592Z,76.57
2022-11-15T15:12:40.708Z,76.94
2022-11-15T15:15:07.001Z,77.17
2022-11-15T15:17:30.844Z,77.85
2022-11-15T15:19:54.518Z,77.91
2022-11-15T15:22:20.933Z,78.33
2022-11-15T15:24:44.763Z,77.75
2022-11-15T15:27:08.811Z,78.18
2022-11-15T15:29:32.370Z,78.63
2022-11-15T15:31:57.414Z,79.16
2022-11-15T15:34:21.035Z,79.35
2022-11-15T15:36:44.623Z,79.17
2022-11-15T15:39:11.017Z,79.83
2022-11-15T15:41:34.682Z,79.18
2022-11-15T15:43:58.213Z,80.26
2022-11-15T15:46:22.701Z,79.24
2022-11-15T15:48:48.187Z,80.26
2022-11-15T15:51:18.702Z,81.21
2022-11-15T15:53:43.710Z,81.40
2022-11-15T15:56:09.029Z,81.78
2022-11-15T15:58:33.183Z,82.02
2022-11-15T16:00:57.083Z,82.34
2022-11-15T16:03:20.732Z,81.54
2022-11-15T16:05:45.965Z,82.87
2022-11-15T16:08:19.789Z,82.45
2022-11-15T16:10:43.357Z,82.09
2022-11-15T16:13:06.884Z,82.53
2022-11-15T16:15:33.319Z,84.20
2022-11-15T16:17:58.581Z,86.14
2022-11-15T16:20:36.436Z,86.25
2022-11-15T16:23:07.505Z,85.82
2022-11-15T16:25:36.370Z,85.53
2022-11-15T16:27:59.934Z,86.82
2022-11-15T16:30:24.902Z,86.56
2022-11-15T16:32:48.868Z,86.96
2022-11-15T16:35:14.463Z,85.86
2022-11-15T16:37:38.032Z,85.53
2022-11-15T16:40:03.101Z,86.70
2022-11-15T16:42:26.741Z,86.68
2022-11-15T16:44:50.474Z,87.95
2022-11-15T16:47:20.059Z,88.07
2022-11-15T16:49:45.993Z,87.82
2022-11-15T16:52:09.543Z,88.71
2022-11-15T16:54:33.117Z,88.42
2022-11-15T16:56:58.046Z,88.92
2022-11-15T16:59:21.627Z,89.02
2022-11-15T17:01:51.676Z,89.55
2022-11-15T17:04:16.489Z,89.46
2022-11-15T17:06:40.622Z,88.85
2022-11-15T17:09:04.242Z,88.18
2022-11-15T17:11:27.755Z,88.27
2022-11-15T17:13:53.219Z,89.62
2022-11-15T17:16:18.923Z,88.68
2022-11-15T17:18:45.598Z,88.00
2022-11-15T17:21:14.542Z,88.63
2022-11-15T17:23:38.234Z,89.88
2022-11-15T17:26:17.783Z,88.76
2022-11-15T17:28:47.911Z,89.28
2022-11-15T17:31:14.453Z,89.32
2022-11-15T17:33:39.062Z,88.89
2022-11-15T17:36:05.414Z,88.92
2022-11-15T17:38:30.207Z,89.17
2022-11-15T17:41:03.375Z,89.99
2022-11-15T17:43:26.983Z,89.35
2022-11-15T17:45:50.523Z,89.50
2022-11-15T17:48:15.509Z,90.34
2022-11-15T17:50:39.098Z,90.29
2022-11-15T17:53:02.709Z,90.32
2022-11-15T17:55:26.246Z,89.50
2022-11-15T17:57:50.007Z,90.51
2022-11-15T18:00:15.181Z,90.69
2022-11-15T18:02:38.918Z,91.13
2022-11-15T18:05:04.267Z,90.23
2022-11-15T18:07:28.008Z,90.01
2022-11-15T18:09:51.690Z,90.65
2022-11-15T18:12:15.301Z,90.45
2022-11-15T18:14:39.250Z,89.57
2022-11-15T18:17:02.937Z,89.35
2022-11-15T18:19:26.492Z,89.49
2022-11-15T18:21:57.638Z,89.64
2022-11-15T18:24:21.311Z,90.15
2022-11-15T18:26:44.856Z,90.49
2022-11-15T18:29:08.413Z,90.10
2022-11-15T18:31:33.102Z,90.64
2022-11-15T18:33:57.339Z,89.43
2022-11-15T18:36:25.097Z,89.93
2022-11-15T18:38:50.286Z,90.06
2022-11-15T18:41:17.926Z,90.17
2022-11-15T18:43:42.670Z,89.84
2022-11-15T18:46:09.060Z,89.58
2022-11-15T18:48:36.249Z,90.03
2022-11-15T18:51:05.284Z,91.96
2022-11-15T18:53:29.850Z,90.56
2022-11-15T18:55:54.863Z,91.35
2022-11-15T18:58:18.458Z,91.30
2022-11-15T19:00:42.011Z,91.73
2022-11-15T19:03:05.734Z,92.06
2022-11-15T19:05:29.556Z,93.43
2022-11-15T19:07:53.153Z,94.17
2022-11-15T19:10:17.386Z,95.58
2022-11-15T19:12:42.394Z,96.28
2022-11-15T19:15:10.192Z,97.48
2022-11-15T19:17:34.064Z,95.84
2022-11-15T19:19:57.587Z,96.66
2022-11-15T19:22:21.162Z,97.64
2022-11-15T19:24:44.685Z,97.69
2022-11-15T19:27:08.389Z,97.66
2022-11-15T19:29:33.313Z,97.60
2022-11-15T19:31:56.958Z,97.86
2022-11-15T19:34:20.542Z,96.34
2022-11-15T19:36:45.838Z,96.95
2022-11-15T19:39:12.964Z,97.13
2022-11-15T19:41:38.691Z,97.35
2022-11-15T19:44:02.543Z,96.72
2022-11-15T19:46:28.158Z,96.10
2022-11-15T19:48:52.543Z,96.51
2022-11-15T19:51:19.292Z,96.91
2022-11-15T19:53:43.511Z,97.00
2022-11-15T19:56:09.523Z,97.17
2022-11-15T19:58:34.742Z,96.10
2022-11-15T20:01:03.400Z,97.26
2022-11-15T20:03:28.582Z,97.06
2022-11-15T20:05:52.273Z,97.95
2022-11-15T20:08:15.798Z,97.27
2022-11-15T20:10:39.403Z,96.78
2022-11-15T20:13:03.177Z,97.99
2022-11-15T20:15:26.791Z,97.01
2022-11-15T20:17:50.340Z,97.20
2022-11-15T20:20:15.677Z,97.03
2022-11-15T20:22:39.406Z,96.79
2022-11-15T20:25:03.266Z,98.22
2022-11-15T20:27:27.510Z,97.45
2022-11-15T20:29:51.900Z,97.91
2022-11-15T20:32:15.522Z,97.46
2022-11-15T20:34:39.143Z,97.42
2022-11-15T20:37:04.039Z,97.69
2022-11-15T20:39:27.718Z,97.96
2022-11-15T20:41:51.413Z,98.30
2022-11-15T20:44:15.110Z,99.13
2022-11-15T20:46:38.811Z,98.91
2022-11-15T20:49:02.695Z,99.07
2022-11-15T20:51:26.621Z,98.84
2022-11-15T20:53:52.167Z,99.93
2022-11-15T20:56:18.821Z,99.08
2022-11-15T20:58:43.549Z,98.88
2022-11-15T21:01:09.510Z,99.68
2022-11-15T21:03:33.778Z,100.00
2022-11-15T21:05:59.473Z,99.69
2022-11-15T21:08:25.791Z,99.00
2022-11-15T21:11:15.089Z,99.44
2022-11-15T21:13:39.828Z,98.62
2022-11-15T21:16:03.791Z,98.05
2022-11-15T21:18:27.534Z,96.99
2022-11-15T21:20:52.130Z,97.51
2022-11-15T21:23:15.778Z,97.35
2022-11-15T21:25:39.329Z,96.73
2022-11-15T21:28:04.474Z,97.01
2022-11-15T21:30:28.577Z,97.99
2022-11-15T21:32:52.142Z,98.84
2022-11-15T21:35:15.727Z,98.44
2022-11-15T21:37:39.327Z,100.00
2022-11-15T21:40:02.905Z,99.36
2022-11-15T21:42:26.512Z,99.24
2022-11-15T21:44:51.442Z,100.00
2022-11-15T21:47:14.999Z,98.42
2022-11-15T21:49:38.518Z,98.05
2022-11-15T21:52:02.217Z,98.21
2022-11-15T21:54:25.787Z,99.91
2022-11-15T21:56:49.421Z,99.59
2022-11-15T21:59:12.961Z,98.49
2022-11-15T22:01:55.454Z,98.92
2022-11-15T22:04:19.270Z,99.77
2022-11-15T22:06:42.910Z,99.17
2022-11-15T22:09:07.760Z,99.39
2022-11-15T22:11:31.559Z,98.26
2022-11-15T22:13:55.152Z,97.11
2022-11-15T22:16:18.678Z,97.75
2022-11-15T22:18:43.965Z,99.57
2022-11-15T22:21:11.260Z,99.41
2022-11-15T22:23:37.301Z,99.63
2022-11-15T22:26:01.593Z,98.33
2022-11-15T22:28:25.908Z,99.66
2022-11-15T22:30:52.622Z,100.00
2022-11-15T22:33:17.164Z,100.00
2022-11-15T22:35:42.549Z,99.77
2022-11-15T22:38:06.496Z,99.22
2022-11-15T22:40:30.244Z,100.00
2022-11-15T22:42:54.057Z,100.00
2022-11-15T22:45:17.921Z,100.00
2022-11-15T22:47:41.757Z,100.00
2022-11-15T22:50:06.537Z,100.00
2022-11-15T22:52:31.844Z,100.00
2022-11-15T22:54:55.564Z,100.00
2022-11-15T22:57:19.382Z,100.00
2022-11-15T22:59:43.092Z,100.00
2022-11-15T23:02:06.918Z,100.00
2022-11-15T23:04:30.897Z,100.00
2022-11-15T23:06:54.979Z,99.69
2022-11-15T23:09:20.206Z,100.00
2022-11-15T23:12:01.538Z,100.00
2022-11-15T23:14:25.545Z,100.00
2022-11-15T23:16:49.288Z,100.00
2022-11-15T23:19:13.946Z,100.00
2022-11-15T23:21:57.619Z,100.00
2022-11-15T23:24:23.942Z,100.00
2022-11-15T23:26:49.866Z,100.00
2022-11-15T23:29:16.546Z,100.00
2022-11-15T23:32:01.900Z,100.00
2022-11-15T23:34:26.165Z,100.00
2022-11-15T23:36:49.925Z,100.00
2022-11-15T23:39:13.709Z,100.00
2022-11-15T23:41:39.103Z,100.00
2022-11-15T23:44:03.126Z,100.00
2022-11-15T23:46:27.252Z,100.00
2022-11-15T23:48:51.029Z,100.00
2022-11-15T23:51:14.890Z,100.00
2022-11-15T23:53:38.722Z,99.98
2022-11-15T23:56:05.441Z,100.00
2022-11-15T23:58:30.781Z,100.00
